Time;durP1;ratioP1;P1;durP2;ratioP2;P2;SDS_P1;SDS_P2;PMS_P1;PMS_P2;Temp;Humidity;BMP_temperature;BMP_pressure;BME280_temperature;BME280_humidity;BME280_pressure;Samples;Min_cycle;Max_cycle;Signal;HPM_P1;HPM_P2
2021/12/02 00:01:50;;;;;;;2.10;1.40;;;;;;;8.53;86.02;96446.44;4894939;29;20652;-87
2021/12/02 00:04:18;;;;;;;2.20;1.30;;;;;;;8.54;85.62;96459.31;4905439;29;21227;-87
2021/12/02 00:06:46;;;;;;;2.23;1.20;;;;;;;8.43;86.08;96453.38;4896056;29;20666;-86
2021/12/02 00:09:15;;;;;;;2.20;1.37;;;;;;;8.38;84.65;96447.75;4919459;29;20674;-87
2021/12/02 00:11:43;;;;;;;3.30;1.27;;;;;;;8.35;84.56;96448.03;4902349;29;20641;-86
2021/12/02 00:14:14;;;;;;;2.50;1.20;;;;;;;8.32;85.24;96440.50;4910739;29;20651;-87
2021/12/02 00:16:53;;;;;;;1.97;1.30;;;;;;;8.28;85.46;96449.50;4916839;29;20659;-87
2021/12/02 00:22:07;;;;;;;2.17;1.30;;;;;;;8.17;85.41;96449.59;4902172;29;20638;-86
2021/12/02 00:24:36;;;;;;;2.60;1.40;;;;;;;8.16;86.02;96449.72;4899714;29;20634;-87
2021/12/02 00:27:06;;;;;;;1.73;1.30;;;;;;;8.17;85.33;96459.16;4908085;29;20642;-87
2021/12/02 00:29:38;;;;;;;6.57;1.50;;;;;;;8.17;85.94;96447.00;4915977;29;20698;-86
2021/12/02 00:32:08;;;;;;;2.60;1.60;;;;;;;8.14;85.50;96449.03;4886488;29;20649;-87
2021/12/02 00:34:37;;;;;;;2.83;1.57;;;;;;;8.11;85.11;96452.72;4900132;29;20642;-87
2021/12/02 00:37:05;;;;;;;5.77;2.43;;;;;;;8.00;84.49;96451.97;4902337;29;21086;-86
2021/12/02 00:39:34;;;;;;;4.83;1.83;;;;;;;7.96;85.98;96465.31;4902289;29;20631;-87
2021/12/02 00:42:02;;;;;;;3.20;1.50;;;;;;;7.92;84.51;96462.13;4919411;29;20642;-87
2021/12/02 00:44:31;;;;;;;3.33;1.50;;;;;;;7.88;86.05;96467.72;4917089;29;20643;-87
2021/12/02 00:47:02;;;;;;;4.67;1.43;;;;;;;7.84;86.19;96469.75;4888113;29;20657;-86
2021/12/02 00:49:30;;;;;;;1.60;1.10;;;;;;;7.86;85.18;96488.59;4902911;29;20670;-86
2021/12/02 00:52:01;;;;;;;2.07;1.37;;;;;;;7.89;85.90;96488.34;4883798;29;20631;-87
2021/12/02 00:54:30;;;;;;;6.60;1.60;;;;;;;7.95;85.14;96489.63;4891311;29;21215;-87
2021/12/02 00:56:58;;;;;;;3.60;1.40;;;;;;;7.99;85.37;96491.84;4899740;29;20749;-87
2021/12/02 00:59:29;;;;;;;2.90;1.70;;;;;;;8.01;85.79;96498.56;4887933;29;20704;-87
2021/12/02 01:01:58;;;;;;;2.47;1.40;;;;;;;8.06;85.54;96498.97;4892197;29;20639;-87
2021/12/02 01:04:28;;;;;;;3.13;1.30;;;;;;;8.10;85.37;96502.13;4916259;29;21166;-87
2021/12/02 01:06:57;;;;;;;3.17;1.73;;;;;;;8.12;84.22;96501.09;4888617;29;21256;-87
2021/12/02 01:09:25;;;;;;;3.23;1.97;;;;;;;8.11;85.53;96494.25;4901533;29;20634;-87
2021/12/02 01:11:55;;;;;;;4.00;1.70;;;;;;;8.14;84.72;96499.19;4905480;29;20638;-87
2021/12/02 01:14:23;;;;;;;2.53;1.20;;;;;;;8.18;84.08;96497.97;4917534;29;20642;-87
2021/12/02 01:16:52;;;;;;;4.13;1.70;;;;;;;8.20;84.08;96487.47;4901900;29;20663;-87
2021/12/02 01:19:20;;;;;;;2.50;1.40;;;;;;;8.20;84.68;96496.06;4905565;29;20656;-87
2021/12/02 01:21:50;;;;;;;2.60;1.40;;;;;;;8.20;83.51;96493.47;4902496;29;20642;-87
2021/12/02 01:24:20;;;;;;;1.93;1.10;;;;;;;8.20;84.44;96485.69;4905451;29;21193;-87
2021/12/02 01:26:51;;;;;;;2.40;1.40;;;;;;;8.16;83.12;96484.31;4892343;29;21190;-87
2021/12/02 01:29:21;;;;;;;2.37;1.37;;;;;;;8.13;83.52;96487.16;4889532;29;20651;-87
2021/12/02 01:31:52;;;;;;;4.43;1.77;;;;;;;8.15;83.44;96487.84;4914795;29;20631;-87
2021/12/02 01:34:24;;;;;;;3.00;1.13;;;;;;;8.16;83.71;96486.91;4893531;29;20661;-87
2021/12/02 01:36:55;;;;;;;2.63;1.10;;;;;;;8.18;84.57;96484.19;4892669;29;20653;-87
2021/12/02 01:39:24;;;;;;;2.60;1.10;;;;;;;8.20;83.99;96492.66;4912632;29;20738;-87
2021/12/02 01:41:54;;;;;;;1.37;0.97;;;;;;;8.18;83.80;96491.97;4890896;29;20734;-87
2021/12/02 01:44:23;;;;;;;3.20;1.20;;;;;;;8.19;83.97;96493.59;4906602;29;20637;-87
2021/12/02 01:46:53;;;;;;;5.03;1.60;;;;;;;8.18;84.16;96491.97;4904736;29;20627;-87
2021/12/02 01:49:23;;;;;;;2.70;0.90;;;;;;;8.14;82.72;96496.59;4902076;29;20769;-87
2021/12/02 01:51:55;;;;;;;2.37;1.10;;;;;;;8.12;83.65;96488.13;4900739;29;20658;-87
2021/12/02 01:54:26;;;;;;;2.17;0.90;;;;;;;8.14;84.37;96488.78;4893735;29;20634;-88
2021/12/02 01:56:58;;;;;;;4.10;1.13;;;;;;;8.15;84.28;96490.44;4904140;29;20690;-87
2021/12/02 01:59:33;;;;;;;1.63;1.07;;;;;;;8.19;83.11;96497.00;4901399;29;20693;-87
2021/12/02 02:02:03;;;;;;;1.73;1.10;;;;;;;8.19;82.78;96491.00;4900664;29;20641;-88
2021/12/02 02:04:32;;;;;;;2.47;1.30;;;;;;;8.19;84.45;96491.81;4892475;29;20674;-87
2021/12/02 02:07:03;;;;;;;2.67;1.17;;;;;;;8.22;83.51;96482.97;4901170;29;21012;-87
2021/12/02 02:09:32;;;;;;;4.40;1.50;;;;;;;8.22;83.19;96483.75;4905137;29;20639;-87
2021/12/02 02:12:02;;;;;;;3.17;1.50;;;;;;;8.23;82.79;96484.63;4909301;29;20643;-87
2021/12/02 02:14:30;;;;;;;2.43;1.10;;;;;;;8.22;83.61;96493.34;4903939;29;20641;-87
2021/12/02 02:17:01;;;;;;;3.50;1.30;;;;;;;8.22;83.97;96493.34;4903860;29;21046;-87
2021/12/02 02:19:31;;;;;;;3.07;1.00;;;;;;;8.24;82.95;96500.06;4892467;29;20658;-87
2021/12/02 02:22:01;;;;;;;2.43;1.30;;;;;;;8.25;82.07;96498.28;4920723;29;20642;-87
2021/12/02 02:24:29;;;;;;;5.50;1.30;;;;;;;8.24;83.34;96497.47;4892751;29;20638;-87
2021/12/02 02:26:57;;;;;;;1.30;0.90;;;;;;;8.25;83.45;96498.28;4907390;29;21183;-87
2021/12/02 02:29:26;;;;;;;2.90;1.13;;;;;;;8.26;83.10;96500.75;4902076;29;20642;-87
2021/12/02 02:31:54;;;;;;;2.87;0.90;;;;;;;8.20;83.34;96496.06;4897624;29;20665;-87
2021/12/02 02:34:23;;;;;;;1.77;0.80;;;;;;;8.21;82.26;96487.34;4900600;29;20639;-87
2021/12/02 02:36:54;;;;;;;3.43;1.00;;;;;;;8.20;83.55;96492.66;4920575;29;20655;-87
2021/12/02 02:39:24;;;;;;;2.33;1.10;;;;;;;8.19;82.88;96489.22;4893003;29;20643;-87
2021/12/02 02:41:57;;;;;;;1.80;1.27;;;;;;;8.17;84.06;96485.94;4895430;29;20700;-87
2021/12/02 02:44:26;;;;;;;3.13;1.40;;;;;;;8.14;82.88;96481.00;4923926;29;20621;-87
2021/12/02 02:46:55;;;;;;;2.17;0.90;;;;;;;8.10;83.64;96490.00;4894155;29;20639;-87
2021/12/02 02:49:23;;;;;;;2.60;1.07;;;;;;;8.11;82.68;96486.47;4901070;29;20619;-87
2021/12/02 02:51:52;;;;;;;5.33;1.00;;;;;;;8.09;83.99;96488.34;4920655;29;20650;-87
2021/12/02 02:54:21;;;;;;;5.23;0.90;;;;;;;8.06;84.38;96487.78;4892493;29;20645;-87
2021/12/02 02:56:58;;;;;;;3.17;1.20;;;;;;;8.03;83.45;96486.25;4904833;29;20662;-86
2021/12/02 02:59:33;;;;;;;2.83;1.00;;;;;;;8.04;84.25;96492.25;4920572;29;20648;-87
2021/12/02 03:02:15;;;;;;;1.80;0.90;;;;;;;8.00;83.95;96488.28;4886797;29;20649;-87
2021/12/02 03:04:51;;;;;;;1.77;0.73;;;;;;;8.01;83.21;96482.13;4922228;29;21195;-87
2021/12/02 03:07:27;;;;;;;3.17;1.20;;;;;;;7.96;84.60;96482.50;4887927;29;20673;-87
2021/12/02 03:10:02;;;;;;;2.17;1.00;;;;;;;7.96;83.11;96471.31;4903470;29;20642;-87
2021/12/02 03:12:36;;;;;;;1.97;0.90;;;;;;;7.86;83.34;96474.81;4900488;29;20660;-87
2021/12/02 03:17:51;;;;;;;4.03;0.90;;;;;;;7.90;84.98;96484.00;4908387;29;20672;-87
2021/12/02 03:20:19;;;;;;;2.80;0.90;;;;;;;7.94;84.97;96474.97;4889851;29;20654;-87
2021/12/02 03:22:47;;;;;;;1.47;0.80;;;;;;;7.91;83.38;96470.06;4903520;29;20632;-86
2021/12/02 03:25:15;;;;;;;2.60;0.87;;;;;;;7.88;83.16;96467.72;4918556;29;20670;-86
2021/12/02 03:27:45;;;;;;;2.50;0.93;;;;;;;7.88;85.00;96465.13;4892429;29;21059;-87
2021/12/02 03:30:13;;;;;;;1.83;1.00;;;;;;;7.76;83.60;96466.16;4905524;29;20627;-87
2021/12/02 03:32:41;;;;;;;2.90;1.10;;;;;;;7.57;85.63;96473.81;4905457;29;21101;-86
2021/12/02 03:35:09;;;;;;;3.20;0.90;;;;;;;7.48;85.76;96474.56;4901538;29;20639;-87
2021/12/02 03:37:38;;;;;;;2.27;1.00;;;;;;;7.44;85.45;96465.38;4893477;29;20680;-87
2021/12/02 03:40:07;;;;;;;2.80;0.90;;;;;;;7.37;85.58;96466.03;4917475;29;20653;-87
2021/12/02 03:42:35;;;;;;;2.97;1.10;;;;;;;7.32;85.37;96474.19;4919979;29;21228;-87
2021/12/02 03:45:06;;;;;;;2.23;1.10;;;;;;;7.19;86.69;96460.56;4908855;29;20726;-87
2021/12/02 03:47:34;;;;;;;2.60;0.97;;;;;;;7.14;86.02;96473.09;4884288;29;20627;-87
2021/12/02 03:50:02;;;;;;;1.90;0.70;;;;;;;7.13;87.00;96470.63;4884555;29;20734;-87
2021/12/02 03:52:31;;;;;;;1.93;0.63;;;;;;;7.15;86.93;96466.94;4889284;29;20652;-87
2021/12/02 03:55:00;;;;;;;1.40;0.70;;;;;;;7.21;85.70;96479.41;4897797;29;20769;-87
2021/12/02 03:57:29;;;;;;;1.20;0.60;;;;;;;7.23;85.71;96474.94;4915195;29;20661;-87
2021/12/02 03:59:57;;;;;;;2.60;0.67;;;;;;;7.20;85.35;96475.19;4889000;29;21217;-87
2021/12/02 04:02:26;;;;;;;1.53;0.80;;;;;;;7.11;86.55;96469.91;4915571;29;20635;-87
2021/12/02 04:04:55;;;;;;;4.63;0.70;;;;;;;7.05;87.34;96476.41;4918097;29;20625;-86
2021/12/02 04:07:25;;;;;;;1.53;0.60;;;;;;;7.04;87.12;96479.13;4906464;29;20670;-87
2021/12/02 04:09:55;;;;;;;3.03;0.80;;;;;;;6.93;87.90;96479.19;4905411;29;21207;-87
2021/12/02 04:12:29;;;;;;;1.00;0.60;;;;;;;6.90;87.58;96476.81;4896923;29;20728;-87
2021/12/02 04:15:02;;;;;;;3.83;0.87;;;;;;;6.88;87.44;96481.28;4916770;29;20642;-87
2021/12/02 04:17:41;;;;;;;1.13;0.70;;;;;;;6.89;87.56;96482.13;4889315;29;20673;-87
2021/12/02 04:20:13;;;;;;;1.87;0.90;;;;;;;6.79;88.95;96486.38;4899110;29;20653;-87
2021/12/02 04:22:42;;;;;;;2.23;0.80;;;;;;;6.70;88.54;96477.56;4905662;29;21222;-87
2021/12/02 04:25:12;;;;;;;1.40;0.60;;;;;;;6.70;88.34;96474.16;4916797;29;20627;-86
2021/12/02 04:27:40;;;;;;;1.40;0.77;;;;;;;6.68;89.53;96465.69;4893209;29;20631;-87
2021/12/02 04:30:11;;;;;;;1.70;0.80;;;;;;;6.66;89.24;96464.97;4903392;29;21175;-87
2021/12/02 04:32:41;;;;;;;1.80;0.77;;;;;;;6.67;89.66;96459.66;4899172;29;21237;-86
2021/12/02 04:35:11;;;;;;;2.83;0.60;;;;;;;6.63;89.05;96454.84;4900652;29;20634;-86
2021/12/02 04:37:39;;;;;;;1.90;0.70;;;;;;;6.58;89.43;96449.22;4894894;29;20693;-88
2021/12/02 04:40:10;;;;;;;1.23;0.60;;;;;;;6.52;89.56;96452.28;4901484;29;21621;-87
2021/12/02 04:42:38;;;;;;;2.80;0.80;;;;;;;6.47;89.96;96454.44;4902520;29;20646;-87
2021/12/02 04:45:07;;;;;;;3.57;0.87;;;;;;;6.42;89.86;96461.75;4884819;29;20661;-87
2021/12/02 04:47:35;;;;;;;1.70;0.83;;;;;;;6.41;89.79;96462.69;4919941;29;20640;-87
2021/12/02 04:50:06;;;;;;;2.63;1.00;;;;;;;6.42;90.65;96460.91;4889097;29;20630;-86
2021/12/02 04:52:34;;;;;;;1.83;0.80;;;;;;;6.39;90.92;96461.97;4905867;29;21171;-86
2021/12/02 04:55:03;;;;;;;1.43;0.70;;;;;;;6.43;90.34;96465.97;4903142;29;21210;-87
2021/12/02 04:57:31;;;;;;;1.93;1.00;;;;;;;6.52;89.95;96465.25;4901184;29;21137;-88
2021/12/02 04:59:59;;;;;;;1.73;1.00;;;;;;;6.64;89.77;96459.91;4908523;29;20638;-88
2021/12/02 05:02:27;;;;;;;1.70;1.00;;;;;;;6.71;89.72;96470.63;4919698;29;20646;-88
2021/12/02 05:04:56;;;;;;;1.60;0.90;;;;;;;6.80;89.96;96472.50;4889558;29;20733;-88
2021/12/02 05:07:25;;;;;;;2.60;1.03;;;;;;;6.89;88.97;96472.56;4904839;29;20665;-87
2021/12/02 05:09:53;;;;;;;3.20;2.10;;;;;;;6.92;89.53;96474.13;4915671;29;20635;-88
2021/12/02 05:12:22;;;;;;;2.30;1.00;;;;;;;6.97;88.34;96472.78;4894319;29;20673;-87
2021/12/02 05:14:50;;;;;;;2.13;0.87;;;;;;;6.96;88.20;96478.94;4898417;29;20729;-88
2021/12/02 05:17:18;;;;;;;2.20;0.87;;;;;;;6.99;87.95;96470.91;4904009;29;20638;-87
2021/12/02 05:19:46;;;;;;;1.27;0.90;;;;;;;7.03;88.49;96477.47;4894157;29;21265;-87
2021/12/02 05:22:15;;;;;;;1.33;0.80;;;;;;;7.05;88.18;96479.00;4889091;29;20641;-88
2021/12/02 05:24:44;;;;;;;3.60;1.10;;;;;;;7.04;87.69;96476.53;4909260;29;20634;-87
2021/12/02 05:27:14;;;;;;;1.43;0.60;;;;;;;6.98;88.07;96484.00;4898263;29;21191;-87
2021/12/02 05:29:42;;;;;;;2.60;0.90;;;;;;;6.90;88.10;96482.00;4903150;29;20634;-87
2021/12/02 05:32:10;;;;;;;2.07;0.70;;;;;;;6.87;88.92;96484.84;4904144;29;20642;-87
2021/12/02 05:34:38;;;;;;;1.30;0.70;;;;;;;6.89;89.10;96474.34;4883508;29;20635;-87
2021/12/02 05:37:06;;;;;;;1.70;0.80;;;;;;;6.78;88.96;96474.38;4892570;29;20637;-87
2021/12/02 05:39:35;;;;;;;1.60;0.90;;;;;;;6.69;89.61;96469.91;4891274;29;20651;-87
2021/12/02 05:42:04;;;;;;;2.00;1.10;;;;;;;6.62;89.17;96476.53;4893271;29;20657;-87
2021/12/02 05:44:33;;;;;;;2.43;0.90;;;;;;;6.59;89.47;96469.81;4904135;29;20646;-88
2021/12/02 05:47:01;;;;;;;2.87;1.00;;;;;;;6.52;89.20;96470.41;4904072;29;20645;-88
2021/12/02 05:49:29;;;;;;;2.10;1.00;;;;;;;6.53;90.06;96461.72;4890483;29;20634;-87
2021/12/02 05:51:57;;;;;;;3.60;0.87;;;;;;;6.54;89.54;96471.16;4902979;29;20987;-87
2021/12/02 05:54:25;;;;;;;1.90;0.90;;;;;;;6.52;90.18;96473.00;4900670;29;20635;-88
2021/12/02 05:56:53;;;;;;;1.20;0.80;;;;;;;6.51;89.48;96468.78;4902527;29;20644;-88
2021/12/02 05:59:24;;;;;;;1.83;0.90;;;;;;;6.54;89.16;96467.72;4905508;29;20647;-87
2021/12/02 06:01:52;;;;;;;4.60;1.10;;;;;;;6.51;89.44;96458.44;4895246;29;20642;-87
2021/12/02 06:04:21;;;;;;;1.53;0.90;;;;;;;6.53;89.32;96463.50;4893299;29;20725;-87
2021/12/02 06:06:50;;;;;;;3.03;1.17;;;;;;;6.49;89.14;96455.13;4893090;29;20672;-87
2021/12/02 06:09:19;;;;;;;2.73;1.33;;;;;;;6.53;88.93;96450.56;4917619;29;20642;-87
2021/12/02 06:11:47;;;;;;;1.23;0.80;;;;;;;6.55;89.80;96459.00;4895393;29;21427;-87
2021/12/02 06:14:16;;;;;;;1.87;0.80;;;;;;;6.56;89.56;96466.66;4903464;29;20641;-87
2021/12/02 06:16:45;;;;;;;5.70;1.00;;;;;;;6.56;88.97;96461.47;4901746;29;20633;-87
2021/12/02 06:19:13;;;;;;;4.77;1.10;;;;;;;6.56;88.83;96458.06;4917061;29;21247;-88
2021/12/02 06:21:41;;;;;;;2.90;1.23;;;;;;;6.51;89.82;96458.44;4901143;29;20627;-89
2021/12/02 06:24:10;;;;;;;2.60;1.43;;;;;;;6.50;89.31;96456.78;4921177;29;21400;-87
2021/12/02 06:26:38;;;;;;;2.33;1.20;;;;;;;6.50;89.73;96463.72;4926405;29;20677;-88
2021/12/02 06:29:07;;;;;;;3.50;1.80;;;;;;;6.44;90.15;96456.44;4905523;29;20642;-88
2021/12/02 06:31:35;;;;;;;2.77;1.83;;;;;;;6.40;89.96;96458.44;4917700;29;20639;-89
2021/12/02 06:34:06;;;;;;;4.93;1.80;;;;;;;6.41;90.02;96465.25;4922389;29;20654;-88
2021/12/02 06:36:36;;;;;;;1.87;1.17;;;;;;;6.48;89.75;96471.63;4894777;29;20761;-88
2021/12/02 06:39:06;;;;;;;2.00;1.30;;;;;;;6.49;90.02;96465.47;4923022;29;20793;-88
2021/12/02 06:41:34;;;;;;;4.60;1.30;;;;;;;6.46;90.15;96467.50;4895191;29;20630;-88
2021/12/02 06:44:02;;;;;;;2.63;1.40;;;;;;;6.45;90.35;96464.09;4910526;29;20638;-88
2021/12/02 06:46:30;;;;;;;1.93;1.00;;;;;;;6.42;89.93;96466.91;4906919;29;20666;-88
2021/12/02 06:48:59;;;;;;;3.40;1.40;;;;;;;6.45;89.42;96471.00;4895557;29;20635;-88
2021/12/02 06:51:29;;;;;;;3.47;1.10;;;;;;;6.43;89.74;96471.13;4901745;29;20629;-88
2021/12/02 06:53:58;;;;;;;2.03;0.90;;;;;;;6.50;89.84;96469.72;4922200;29;20987;-88
2021/12/02 06:56:46;;;;;;;1.97;1.10;;;;;;;6.50;89.93;96474.09;4892815;29;20638;-88
2021/12/02 06:59:14;;;;;;;1.40;0.90;;;;;;;6.44;89.59;96474.56;4889394;29;20670;-89
2021/12/02 07:01:43;;;;;;;1.80;1.30;;;;;;;6.40;90.58;96475.75;4909165;29;22253;-88
2021/12/02 07:04:11;;;;;;;1.80;1.20;;;;;;;6.38;90.58;96483.63;4903890;29;20630;-92
2021/12/02 07:06:43;;;;;;;1.47;1.00;;;;;;;6.35;90.48;96477.88;4889109;29;21234;-90
2021/12/02 07:09:11;;;;;;;1.80;0.90;;;;;;;6.31;90.47;96476.44;4909721;29;21057;-87
2021/12/02 07:11:41;;;;;;;1.60;1.10;;;;;;;6.33;90.41;96483.16;4896259;29;20702;-86
2021/12/02 07:14:12;;;;;;;4.93;0.90;;;;;;;6.27;90.70;96478.47;4889539;29;21195;-85
2021/12/02 07:16:41;;;;;;;2.03;1.20;;;;;;;6.19;90.23;96488.59;4908296;29;21386;-86
2021/12/02 07:19:15;;;;;;;9.10;4.00;;;;;;;6.22;91.25;96479.75;4895371;29;21229;-86
2021/12/02 07:21:45;;;;;;;7.53;3.07;;;;;;;6.26;91.11;96491.53;4895476;29;20645;-87
2021/12/02 07:24:15;;;;;;;2.03;1.20;;;;;;;6.26;91.24;96489.75;4914144;29;21228;-87
2021/12/02 07:27:05;;;;;;;3.10;1.30;;;;;;;6.25;90.79;96485.50;4902589;29;20649;-85
2021/12/02 07:29:33;;;;;;;1.40;1.07;;;;;;;6.29;90.83;96489.50;4906249;29;20660;-85
2021/12/02 07:32:03;;;;;;;3.43;0.93;;;;;;;6.31;90.88;96490.19;4918760;29;20651;-88
2021/12/02 07:34:34;;;;;;;2.93;1.07;;;;;;;6.36;90.62;96500.19;4887448;29;20645;-84
2021/12/02 07:37:04;;;;;;;2.40;0.97;;;;;;;6.36;90.46;96490.69;4898886;29;21302;-85
2021/12/02 07:39:32;;;;;;;2.07;1.00;;;;;;;6.39;90.41;96495.63;4922942;29;21194;-85
2021/12/02 07:42:19;;;;;;;1.50;0.90;;;;;;;6.41;90.99;96495.50;4914225;29;20631;-85
2021/12/02 07:44:47;;;;;;;2.50;1.00;;;;;;;6.45;90.04;96495.16;4907341;29;21210;-87
2021/12/02 07:47:15;;;;;;;3.27;1.13;;;;;;;6.50;90.15;96495.63;4906529;29;20630;-87
2021/12/02 07:49:44;;;;;;;4.83;1.07;;;;;;;6.54;89.99;96493.59;4920467;29;20631;-87
2021/12/02 07:52:15;;;;;;;2.13;1.10;;;;;;;6.47;89.95;96497.63;4899793;29;21707;-86
2021/12/02 07:54:43;;;;;;;2.17;0.80;;;;;;;6.53;89.63;96495.38;4911303;29;20733;-92
2021/12/02 07:57:14;;;;;;;6.47;4.07;;;;;;;6.47;89.63;96493.25;4885869;29;20773;-89
2021/12/02 07:59:43;;;;;;;1.30;0.90;;;;;;;6.43;90.02;96491.84;4903145;29;20655;-86
2021/12/02 08:02:14;;;;;;;1.60;1.00;;;;;;;6.38;89.70;96475.84;4906091;29;20750;-86
2021/12/02 08:04:43;;;;;;;3.03;1.20;;;;;;;6.38;89.58;96488.78;4899047;29;20642;-86
2021/12/02 08:07:11;;;;;;;2.30;0.90;;;;;;;6.38;89.44;96491.38;4886636;29;20654;-86
2021/12/02 08:09:41;;;;;;;1.30;0.80;;;;;;;6.37;89.73;96492.31;4900376;29;21230;-86
2021/12/02 08:12:10;;;;;;;2.33;1.03;;;;;;;6.38;89.90;96488.00;4890710;29;21282;-86
2021/12/02 08:14:38;;;;;;;2.43;0.90;;;;;;;6.38;89.74;96498.34;4899131;29;20639;-86
2021/12/02 08:17:06;;;;;;;1.60;0.80;;;;;;;6.36;90.28;96495.88;4901739;29;21285;-87
2021/12/02 08:19:35;;;;;;;2.97;0.90;;;;;;;6.36;90.13;96495.03;4903557;29;20663;-86
2021/12/02 08:22:03;;;;;;;1.77;1.07;;;;;;;6.34;90.58;96505.50;4903446;29;20635;-89
2021/12/02 08:24:31;;;;;;;2.27;1.07;;;;;;;6.36;90.70;96498.47;4894600;29;21040;-85
2021/12/02 08:27:01;;;;;;;2.00;1.10;;;;;;;6.34;92.18;96496.91;4892453;29;20646;-85
2021/12/02 08:29:29;;;;;;;2.30;1.20;;;;;;;6.30;91.76;96496.34;4901502;29;20658;-85
2021/12/02 08:31:57;;;;;;;1.40;0.90;;;;;;;6.28;92.43;96499.97;4897409;29;20643;-85
2021/12/02 08:34:25;;;;;;;2.13;1.07;;;;;;;6.31;91.58;96490.19;4901972;29;21013;-85
2021/12/02 08:36:55;;;;;;;2.47;1.40;;;;;;;6.29;91.92;96499.06;4902101;29;20643;-85
2021/12/02 08:39:25;;;;;;;6.13;2.77;;;;;;;6.28;91.80;96498.19;4898024;29;21175;-85
2021/12/02 08:41:54;;;;;;;2.03;1.10;;;;;;;6.26;91.85;96494.91;4897407;29;20715;-85
2021/12/02 08:44:25;;;;;;;2.30;1.00;;;;;;;6.29;92.13;96497.28;4921330;29;20639;-85
2021/12/02 08:46:54;;;;;;;2.00;1.10;;;;;;;6.30;92.43;96504.09;4891238;29;21117;-85
2021/12/02 08:49:23;;;;;;;1.53;0.87;;;;;;;6.32;92.14;96509.97;4905661;29;21250;-85
2021/12/02 08:51:52;;;;;;;3.40;1.07;;;;;;;6.37;91.78;96510.44;4897570;29;20670;-85
2021/12/02 08:54:20;;;;;;;2.70;1.30;;;;;;;6.40;91.97;96506.81;4889468;29;20677;-85
2021/12/02 08:56:49;;;;;;;5.33;1.13;;;;;;;6.42;92.11;96507.50;4889980;29;21030;-86
2021/12/02 08:59:18;;;;;;;7.43;3.10;;;;;;;6.40;91.28;96506.81;4917587;29;20631;-85
2021/12/02 09:01:48;;;;;;;1.30;0.90;;;;;;;6.37;90.85;96501.84;4899714;29;20662;-86
2021/12/02 09:04:16;;;;;;;1.90;1.10;;;;;;;6.38;91.72;96496.56;4888530;29;20729;-86
2021/12/02 09:06:44;;;;;;;1.97;0.90;;;;;;;6.42;91.97;96500.56;4901887;29;21097;-86
2021/12/02 09:09:12;;;;;;;2.20;1.30;;;;;;;6.47;91.04;96498.44;4906572;29;20639;-86
2021/12/02 09:11:40;;;;;;;3.90;1.20;;;;;;;6.59;91.72;96498.31;4908001;29;20986;-86
2021/12/02 09:14:09;;;;;;;3.27;1.27;;;;;;;6.68;91.98;96499.38;4903930;29;20673;-86
2021/12/02 09:16:37;;;;;;;2.80;1.40;;;;;;;6.74;90.88;96498.88;4891073;29;20736;-86
2021/12/02 09:19:07;;;;;;;1.77;1.10;;;;;;;6.68;90.56;96507.94;4904789;29;20671;-86
2021/12/02 09:21:35;;;;;;;1.70;1.27;;;;;;;6.68;90.81;96502.75;4890961;29;20762;-87
2021/12/02 09:24:03;;;;;;;2.23;1.40;;;;;;;6.78;91.71;96508.03;4892991;29;22134;-86
2021/12/02 09:26:32;;;;;;;2.80;1.40;;;;;;;6.76;92.29;96515.94;4921616;29;20640;-86
2021/12/02 09:29:00;;;;;;;3.00;1.63;;;;;;;6.72;91.13;96518.88;4889130;29;20690;-86
2021/12/02 09:31:28;;;;;;;2.23;1.27;;;;;;;6.74;91.88;96514.44;4904536;29;20993;-86
2021/12/02 09:33:56;;;;;;;2.47;1.33;;;;;;;6.65;92.10;96515.97;4920878;29;20647;-86
2021/12/02 09:36:26;;;;;;;2.07;1.50;;;;;;;6.68;92.47;96522.66;4898799;29;20738;-86
2021/12/02 09:38:54;;;;;;;2.37;1.53;;;;;;;6.76;92.49;96515.94;4900699;29;21254;-86
2021/12/02 09:41:23;;;;;;;2.30;1.50;;;;;;;6.76;92.45;96515.94;4902895;29;20681;-86
2021/12/02 09:43:51;;;;;;;3.20;1.73;;;;;;;6.70;92.34;96520.78;4920020;29;20995;-86
2021/12/02 09:46:19;;;;;;;2.67;1.80;;;;;;;6.64;93.06;96516.88;4922329;29;20639;-88
2021/12/02 09:48:47;;;;;;;2.87;1.83;;;;;;;6.58;93.82;96512.22;4905692;29;20661;-88
2021/12/02 09:51:20;;;;;;;5.90;3.60;;;;;;;6.55;93.98;96513.38;4899299;29;21097;-88
2021/12/02 09:54:14;;;;;;;3.93;1.60;;;;;;;6.39;94.68;96510.31;4902655;29;20642;-87
2021/12/02 09:56:45;;;;;;;3.97;1.70;;;;;;;6.37;94.47;96512.22;4901964;29;21008;-88
2021/12/02 09:59:23;;;;;;;2.20;1.70;;;;;;;6.46;94.71;96509.72;4906618;29;20627;-88
2021/12/02 10:01:55;;;;;;;5.83;3.00;;;;;;;6.58;94.73;96527.75;4894917;29;20670;-88
2021/12/02 10:04:25;;;;;;;3.63;2.70;;;;;;;6.65;94.55;96556.56;4905994;29;20641;-88
2021/12/02 10:07:08;;;;;;;1.73;1.00;;;;;;;6.46;89.37;96558.09;4890004;29;21353;-88
2021/12/02 10:09:42;;;;;;;1.77;1.10;;;;;;;6.16;88.11;96565.59;4909124;29;20643;-88
2021/12/02 10:12:19;;;;;;;3.97;2.00;;;;;;;5.86;88.09;96567.09;4892496;29;20708;-88
2021/12/02 10:14:50;;;;;;;6.97;3.07;;;;;;;5.70;88.86;96564.78;4897754;29;20646;-89
2021/12/02 10:17:22;;;;;;;3.90;2.60;;;;;;;5.62;89.13;96567.13;4902617;29;21444;-90
2021/12/02 10:20:10;;;;;;;5.30;3.10;;;;;;;5.54;88.93;96570.38;4888811;29;21221;-90
2021/12/02 10:22:40;;;;;;;6.97;4.63;;;;;;;5.49;88.94;96568.13;4897674;29;20686;-90
2021/12/02 10:25:09;;;;;;;5.83;3.77;;;;;;;5.48;89.57;96575.97;4899386;29;20647;-89
2021/12/02 10:28:04;;;;;;;7.77;5.03;;;;;;;5.44;89.02;96570.22;4921389;29;20630;-90
2021/12/02 10:30:33;;;;;;;8.93;5.17;;;;;;;5.42;88.95;96576.44;4892241;29;21228;-90
2021/12/02 10:33:02;;;;;;;6.00;4.10;;;;;;;5.38;88.99;96570.66;4891877;29;20728;-90
2021/12/02 10:35:43;;;;;;;5.50;3.17;;;;;;;5.36;89.54;96572.50;4896229;29;20978;-90
2021/12/02 10:38:33;;;;;;;3.37;2.20;;;;;;;5.36;89.44;96564.75;4912588;29;20674;-90
2021/12/02 10:41:06;;;;;;;3.50;2.87;;;;;;;5.39;89.36;96567.13;4896079;29;20651;-90
2021/12/02 10:43:34;;;;;;;3.00;2.17;;;;;;;5.43;90.10;96570.34;4908247;29;20640;-90
2021/12/02 10:46:16;;;;;;;3.50;2.30;;;;;;;5.50;90.12;96568.94;4898455;29;20639;-90
2021/12/02 10:48:48;;;;;;;2.60;2.17;;;;;;;5.57;90.33;96562.38;4894447;29;20686;-90
2021/12/02 10:51:42;;;;;;;3.40;2.93;;;;;;;5.64;90.15;96561.84;4892585;29;20747;-89
2021/12/02 10:54:14;;;;;;;3.33;2.70;;;;;;;5.68;91.16;96561.50;4897462;29;21090;-90
2021/12/02 10:56:46;;;;;;;3.20;1.87;;;;;;;5.76;90.74;96558.38;4897194;29;21262;-90
2021/12/02 10:59:32;;;;;;;2.40;1.50;;;;;;;5.83;90.79;96562.13;4923374;29;20647;-90
2021/12/02 11:02:03;;;;;;;3.43;3.13;;;;;;;5.87;90.25;96558.41;4888040;29;21044;-90
2021/12/02 11:04:41;;;;;;;4.70;4.30;;;;;;;5.87;89.87;96561.78;4889533;29;21299;-89
2021/12/02 11:07:13;;;;;;;2.00;1.40;;;;;;;5.87;88.86;96566.16;4908463;29;21282;-89
2021/12/02 11:09:43;;;;;;;1.77;1.13;;;;;;;5.82;88.94;96561.31;4894688;29;20635;-90
2021/12/02 11:12:16;;;;;;;1.37;1.03;;;;;;;5.80;89.50;96560.63;4889533;29;20639;-90
2021/12/02 11:15:00;;;;;;;2.07;0.90;;;;;;;5.82;89.71;96563.91;4900494;29;20686;-90
2021/12/02 11:17:31;;;;;;;1.63;1.03;;;;;;;5.86;89.83;96564.50;4899938;29;21237;-89
2021/12/02 11:20:02;;;;;;;1.17;0.80;;;;;;;5.85;90.07;96560.25;4888278;29;20646;-90
2021/12/02 11:22:30;;;;;;;2.07;1.10;;;;;;;5.86;91.06;96562.72;4914943;29;20659;-90
2021/12/02 11:24:59;;;;;;;2.60;1.50;;;;;;;5.92;91.30;96564.84;4900776;29;20647;-91
2021/12/02 11:27:33;;;;;;;2.20;1.43;;;;;;;5.93;90.73;96568.28;4901469;29;20670;-90
2021/12/02 11:30:05;;;;;;;1.93;1.23;;;;;;;5.95;90.21;96564.63;4889233;29;20655;-88
2021/12/02 11:32:37;;;;;;;4.70;1.40;;;;;;;5.96;90.43;96568.06;4885722;29;20695;-88
2021/12/02 11:35:14;;;;;;;1.40;1.00;;;;;;;5.96;89.97;96563.69;4887749;29;20642;-87
2021/12/02 11:37:45;;;;;;;2.03;1.13;;;;;;;5.96;90.22;96562.88;4912798;29;20630;-87
2021/12/02 11:40:17;;;;;;;1.70;1.20;;;;;;;5.99;89.82;96562.66;4909505;29;20631;-90
2021/12/02 11:42:49;;;;;;;2.07;1.03;;;;;;;5.99;90.12;96560.88;4892467;29;20781;-85
2021/12/02 11:45:19;;;;;;;2.43;1.53;;;;;;;6.02;90.94;96552.91;4891822;29;21214;-85
2021/12/02 11:47:49;;;;;;;2.43;1.20;;;;;;;6.08;90.44;96542.09;4899090;29;20647;-85
2021/12/02 11:50:18;;;;;;;2.30;1.70;;;;;;;6.11;90.42;96537.50;4903569;29;20642;-85
2021/12/02 11:52:46;;;;;;;2.30;1.80;;;;;;;6.11;89.97;96541.84;4901889;29;21224;-85
2021/12/02 11:55:17;;;;;;;2.60;2.30;;;;;;;6.09;90.55;96541.97;4908153;29;21310;-88
2021/12/02 11:57:48;;;;;;;2.93;2.23;;;;;;;6.11;90.08;96550.44;4896885;29;20646;-86
2021/12/02 12:00:20;;;;;;;4.27;2.63;;;;;;;6.10;90.18;96548.81;4892674;29;21009;-86
2021/12/02 12:02:51;;;;;;;3.80;2.30;;;;;;;6.07;90.14;96549.97;4901666;29;20666;-86